createdAt,value
2019-03-26T00:02:19.789Z,68.79
2019-03-26T00:04:48.591Z,68.66
2019-03-26T00:07:17.351Z,68.69
2019-03-26T00:09:46.110Z,68.90
2019-03-26T00:12:14.910Z,68.82
2019-03-26T00:14:43.670Z,68.95
2019-03-26T00:17:12.490Z,68.71
2019-03-26T00:19:41.253Z,69.01
2019-03-26T00:22:11.411Z,69.02
2019-03-26T00:24:40.171Z,68.80
2019-03-26T00:27:08.931Z,68.85
2019-03-26T00:29:37.733Z,69.24
2019-03-26T00:32:06.490Z,69.25
2019-03-26T00:34:35.250Z,68.91
2019-03-26T00:37:04.032Z,69.02
2019-03-26T00:39:32.772Z,68.70
2019-03-26T00:42:01.590Z,68.96
2019-03-26T00:44:31.587Z,68.84
2019-03-26T00:47:00.351Z,68.52
2019-03-26T00:49:29.135Z,68.70
2019-03-26T00:51:57.870Z,68.71
2019-03-26T00:54:26.650Z,68.93
2019-03-26T00:56:55.409Z,69.08
2019-03-26T00:59:26.293Z,68.72
2019-03-26T01:01:55.090Z,68.51
2019-03-26T01:04:32.727Z,68.54
2019-03-26T01:06:54.330Z,68.66
2019-03-26T01:09:23.095Z,68.48
2019-03-26T01:11:51.830Z,68.88
2019-03-26T01:14:20.610Z,68.15
2019-03-26T01:16:49.392Z,67.97
2019-03-26T01:19:18.190Z,68.08
2019-03-26T01:21:46.958Z,68.62
2019-03-26T01:24:15.750Z,68.62
2019-03-26T01:26:45.710Z,68.70
2019-03-26T01:29:14.470Z,68.93
2019-03-26T01:31:43.272Z,69.03
2019-03-26T01:34:11.992Z,69.12
2019-03-26T01:36:43.030Z,68.95
2019-03-26T01:39:11.811Z,69.06
2019-03-26T01:41:40.552Z,69.17
2019-03-26T01:44:10.351Z,69.13
2019-03-26T01:46:39.135Z,69.02
2019-03-26T01:49:07.951Z,69.04
2019-03-26T01:51:36.730Z,69.21
2019-03-26T01:54:05.593Z,69.15
2019-03-26T01:56:34.373Z,69.17
2019-03-26T01:59:03.132Z,68.93
2019-03-26T02:01:31.932Z,68.80
2019-03-26T02:04:00.691Z,68.94
2019-03-26T02:06:29.482Z,68.78
2019-03-26T02:08:58.253Z,68.87
2019-03-26T02:11:27.092Z,68.66
2019-03-26T02:13:55.931Z,68.64
2019-03-26T02:16:24.691Z,68.36
2019-03-26T02:18:53.453Z,68.50
2019-03-26T02:21:23.059Z,68.52
2019-03-26T02:23:51.831Z,68.77
2019-03-26T02:26:20.973Z,68.86
2019-03-26T02:28:49.752Z,68.83
2019-03-26T02:31:18.511Z,69.00
2019-03-26T02:33:47.294Z,68.64
2019-03-26T02:36:16.012Z,68.38
2019-03-26T02:38:44.797Z,68.62
2019-03-26T02:41:13.895Z,68.21
2019-03-26T02:43:42.673Z,68.11
2019-03-26T02:46:12.152Z,68.37
2019-03-26T02:48:42.371Z,68.15
2019-03-26T02:51:11.173Z,67.67
2019-03-26T02:53:39.931Z,67.81
2019-03-26T02:56:08.751Z,67.83
2019-03-26T02:58:37.527Z,67.75
2019-03-26T03:01:06.272Z,68.03
2019-03-26T03:03:35.698Z,67.87
2019-03-26T03:06:04.492Z,67.76
2019-03-26T03:08:33.302Z,67.61
2019-03-26T03:11:03.654Z,67.80
2019-03-26T03:13:32.472Z,67.91
2019-03-26T03:16:01.273Z,68.42
2019-03-26T03:18:30.099Z,68.05
2019-03-26T03:20:58.902Z,67.78
2019-03-26T03:23:27.673Z,67.89
2019-03-26T03:25:56.452Z,67.97
2019-03-26T03:28:25.233Z,68.04
2019-03-26T03:30:53.997Z,68.28
2019-03-26T03:33:22.830Z,68.27
2019-03-26T03:35:53.073Z,68.07
2019-03-26T03:38:23.626Z,68.09
2019-03-26T03:40:52.438Z,68.07
2019-03-26T03:43:21.233Z,67.72
2019-03-26T03:45:50.272Z,67.74
2019-03-26T03:48:19.531Z,67.88
2019-03-26T03:50:48.417Z,67.64
2019-03-26T03:53:20.652Z,67.66
2019-03-26T03:55:51.338Z,67.81
2019-03-26T03:58:24.437Z,67.64
2019-03-26T04:00:53.233Z,67.32
2019-03-26T04:03:21.993Z,67.70
2019-03-26T04:06:07.694Z,67.54
2019-03-26T04:08:21.277Z,67.57
2019-03-26T04:10:51.262Z,67.46
2019-03-26T04:13:19.993Z,67.19
2019-03-26T04:15:48.854Z,66.95
2019-03-26T04:18:17.672Z,66.82
2019-03-26T04:20:46.433Z,66.73
2019-03-26T04:23:15.234Z,67.05
2019-03-26T04:25:43.994Z,66.54
2019-03-26T04:28:12.813Z,66.70
2019-03-26T04:30:41.571Z,66.71
2019-03-26T04:33:10.332Z,66.81
2019-03-26T04:35:39.111Z,66.83
2019-03-26T04:38:08.755Z,66.72
2019-03-26T04:40:37.552Z,67.06
2019-03-26T04:43:06.332Z,66.71
2019-03-26T04:45:35.092Z,66.88
2019-03-26T04:48:03.873Z,66.66
2019-03-26T04:50:32.614Z,66.50
2019-03-26T04:53:01.447Z,66.95
2019-03-26T04:55:30.194Z,66.44
2019-03-26T04:57:58.971Z,66.78
2019-03-26T05:00:27.771Z,66.71
2019-03-26T05:02:56.537Z,67.18
2019-03-26T05:05:25.354Z,66.62
2019-03-26T05:07:54.132Z,66.27
2019-03-26T05:10:22.896Z,65.97
2019-03-26T05:12:51.691Z,65.81
2019-03-26T05:15:20.451Z,66.08
2019-03-26T05:17:49.252Z,66.38
2019-03-26T05:20:18.031Z,66.87
2019-03-26T05:22:46.774Z,67.92
2019-03-26T05:25:15.653Z,67.48
2019-03-26T05:27:45.662Z,67.46
2019-03-26T05:30:14.791Z,67.48
2019-03-26T05:32:43.532Z,67.97
2019-03-26T05:35:12.431Z,66.55
2019-03-26T05:37:41.214Z,66.85
2019-03-26T05:40:10.800Z,66.33
2019-03-26T05:42:39.675Z,65.59
2019-03-26T05:45:09.557Z,66.00
2019-03-26T05:47:38.294Z,65.87
2019-03-26T05:50:09.092Z,65.51
2019-03-26T05:52:38.531Z,65.51
2019-03-26T05:55:08.534Z,65.51
2019-03-26T05:57:37.693Z,63.79
2019-03-26T06:00:14.011Z,64.33
2019-03-26T06:02:42.772Z,64.38
2019-03-26T06:05:11.551Z,64.79
2019-03-26T06:07:40.331Z,64.98
2019-03-26T06:10:10.391Z,65.45
2019-03-26T06:12:39.194Z,64.96
2019-03-26T06:15:10.711Z,65.06
2019-03-26T06:17:39.492Z,65.37
2019-03-26T06:20:09.171Z,64.37
2019-03-26T06:22:37.972Z,65.36
2019-03-26T06:25:12.053Z,64.98
2019-03-26T06:27:40.812Z,65.47
2019-03-26T06:30:10.188Z,66.22
2019-03-26T06:32:38.990Z,65.46
2019-03-26T06:35:08.934Z,66.18
2019-03-26T06:37:39.371Z,64.68
2019-03-26T06:40:09.930Z,65.31
2019-03-26T06:42:41.619Z,64.22
2019-03-26T06:45:14.091Z,64.01
2019-03-26T06:47:42.951Z,63.83
2019-03-26T06:50:13.954Z,63.24
2019-03-26T06:52:42.714Z,63.98
2019-03-26T06:55:13.171Z,63.76
2019-03-26T06:57:41.971Z,64.47
2019-03-26T07:00:12.837Z,64.06
2019-03-26T07:02:41.611Z,63.00
2019-03-26T07:05:11.273Z,62.87
2019-03-26T07:07:40.091Z,62.78
2019-03-26T07:10:11.336Z,63.20
2019-03-26T07:12:40.091Z,62.41
2019-03-26T07:15:09.811Z,61.52
2019-03-26T07:17:38.673Z,61.82
2019-03-26T07:20:08.992Z,60.72
2019-03-26T07:22:37.751Z,60.20
2019-03-26T07:25:10.413Z,61.03
2019-03-26T07:27:39.191Z,60.14
2019-03-26T07:30:09.152Z,59.71
2019-03-26T07:32:38.281Z,59.12
2019-03-26T07:35:08.151Z,58.90
2019-03-26T07:37:45.176Z,60.29
2019-03-26T07:40:09.532Z,59.82
2019-03-26T07:42:38.290Z,59.28
2019-03-26T07:45:09.195Z,58.90
2019-03-26T07:47:38.013Z,57.58
2019-03-26T07:50:07.710Z,58.61
2019-03-26T07:52:36.512Z,59.33
2019-03-26T07:55:08.287Z,60.23
2019-03-26T07:57:39.914Z,58.47
2019-03-26T08:00:10.810Z,57.48
2019-03-26T08:02:39.671Z,58.63
2019-03-26T08:05:09.230Z,57.49
2019-03-26T08:07:38.210Z,56.93
2019-03-26T08:10:10.455Z,58.18
2019-03-26T08:12:39.211Z,58.15
2019-03-26T08:15:08.742Z,57.26
2019-03-26T08:17:37.551Z,57.72
2019-03-26T08:20:07.890Z,55.97
2019-03-26T08:22:36.731Z,55.90
2019-03-26T08:25:07.354Z,56.30
2019-03-26T08:27:36.173Z,55.27
2019-03-26T08:30:09.011Z,54.35
2019-03-26T08:32:37.790Z,55.70
2019-03-26T08:35:06.900Z,56.16
2019-03-26T08:37:35.692Z,56.64
2019-03-26T08:40:07.631Z,55.74
2019-03-26T08:42:36.370Z,52.94
2019-03-26T08:45:07.410Z,53.90
2019-03-26T08:47:36.194Z,54.99
2019-03-26T08:50:07.850Z,53.20
2019-03-26T08:52:36.791Z,53.22
2019-03-26T08:55:08.112Z,53.54
2019-03-26T08:57:36.872Z,53.08
2019-03-26T09:00:11.331Z,53.57
2019-03-26T09:02:40.057Z,51.96
2019-03-26T09:05:09.819Z,52.97
2019-03-26T09:07:38.630Z,52.58
2019-03-26T09:10:10.094Z,51.67
2019-03-26T09:12:39.690Z,51.29
2019-03-26T09:15:10.211Z,49.91
2019-03-26T09:17:39.851Z,51.60
2019-03-26T09:20:10.913Z,52.23
2019-03-26T09:22:39.830Z,50.33
2019-03-26T09:25:08.774Z,50.92
2019-03-26T09:27:37.572Z,49.79
2019-03-26T09:30:08.472Z,49.46
2019-03-26T09:32:37.430Z,48.05
2019-03-26T09:35:08.851Z,49.09
2019-03-26T09:37:37.771Z,49.32
2019-03-26T09:40:09.132Z,47.53
2019-03-26T09:42:38.371Z,48.77
2019-03-26T09:45:09.340Z,49.87
2019-03-26T09:47:38.456Z,49.19
2019-03-26T09:50:09.571Z,47.98
2019-03-26T09:52:38.412Z,49.16
2019-03-26T09:55:09.291Z,48.28
2019-03-26T09:57:38.531Z,49.24
2019-03-26T10:00:11.350Z,48.61
2019-03-26T10:02:43.196Z,46.43
2019-03-26T10:05:11.091Z,47.93
2019-03-26T10:07:39.891Z,46.37
2019-03-26T10:10:09.431Z,47.56
2019-03-26T10:12:38.166Z,46.82
2019-03-26T10:15:10.251Z,46.11
2019-03-26T10:17:38.991Z,47.26
2019-03-26T10:20:08.951Z,47.48
2019-03-26T10:22:38.352Z,47.22
2019-03-26T10:25:11.011Z,46.00
2019-03-26T10:27:39.271Z,46.44
2019-03-26T10:30:11.212Z,43.23
2019-03-26T10:32:40.274Z,43.55
2019-03-26T10:35:09.136Z,44.03
2019-03-26T10:37:37.954Z,45.43
2019-03-26T10:40:10.317Z,44.19
2019-03-26T10:42:39.051Z,43.72
2019-03-26T10:45:08.671Z,42.91
2019-03-26T10:47:37.430Z,42.92
2019-03-26T10:50:08.051Z,41.37
2019-03-26T10:52:36.851Z,39.66
2019-03-26T10:55:07.051Z,43.20
2019-03-26T10:57:36.199Z,43.30
2019-03-26T11:00:07.073Z,42.94
2019-03-26T11:02:35.830Z,42.25
2019-03-26T11:05:06.814Z,43.63
2019-03-26T11:07:35.952Z,43.79
2019-03-26T11:10:07.434Z,44.17
2019-03-26T11:12:36.211Z,44.65
2019-03-26T11:15:09.443Z,44.78
2019-03-26T11:17:38.174Z,44.84
2019-03-26T11:20:07.475Z,44.11
2019-03-26T11:22:36.351Z,42.69
2019-03-26T11:25:07.191Z,43.11
2019-03-26T11:27:35.951Z,42.52
2019-03-26T11:30:08.052Z,42.17
2019-03-26T11:32:37.011Z,42.76
2019-03-26T11:35:07.471Z,42.35
2019-03-26T11:37:36.283Z,43.63
2019-03-26T11:40:07.158Z,45.58
2019-03-26T11:42:35.936Z,43.27
2019-03-26T11:45:09.333Z,44.25
2019-03-26T11:47:39.623Z,43.11
2019-03-26T11:50:09.012Z,43.90
2019-03-26T11:52:38.247Z,43.86
2019-03-26T11:55:08.692Z,43.31
2019-03-26T11:57:37.452Z,41.50
2019-03-26T12:00:12.076Z,42.70
2019-03-26T12:02:40.832Z,43.20
2019-03-26T12:05:09.892Z,41.56
2019-03-26T12:07:38.672Z,41.39
2019-03-26T12:10:10.813Z,39.98
2019-03-26T12:12:39.576Z,40.02
2019-03-26T12:15:09.473Z,39.21
2019-03-26T12:17:38.255Z,38.82
2019-03-26T12:20:08.614Z,40.75
2019-03-26T12:22:37.430Z,41.12
2019-03-26T12:25:07.753Z,40.80
2019-03-26T12:27:37.043Z,41.46
2019-03-26T12:30:08.052Z,41.29
2019-03-26T12:32:36.814Z,42.52
2019-03-26T12:35:07.852Z,42.59
2019-03-26T12:37:36.632Z,42.52
2019-03-26T12:40:07.255Z,41.99
2019-03-26T12:42:36.072Z,41.30
2019-03-26T12:45:07.074Z,41.28
2019-03-26T12:47:36.172Z,39.19
2019-03-26T12:50:07.272Z,41.47
2019-03-26T12:52:36.033Z,43.14
2019-03-26T12:55:06.112Z,45.21
2019-03-26T12:57:34.932Z,45.96
2019-03-26T13:00:04.092Z,43.97
2019-03-26T13:02:35.699Z,45.14
2019-03-26T13:05:03.372Z,45.40
2019-03-26T13:07:32.133Z,46.23
2019-03-26T13:10:12.640Z,44.83
2019-03-26T13:12:31.393Z,44.28
2019-03-26T13:15:00.415Z,43.67
2019-03-26T13:17:29.192Z,42.47
2019-03-26T13:19:57.992Z,42.27
2019-03-26T13:22:26.752Z,43.18
2019-03-26T13:24:55.532Z,43.88
2019-03-26T13:27:24.332Z,44.59
2019-03-26T13:29:53.111Z,45.77
2019-03-26T13:32:21.912Z,43.85
2019-03-26T13:34:50.673Z,43.32
2019-03-26T13:37:21.784Z,43.33
2019-03-26T13:39:49.952Z,41.67
2019-03-26T13:42:18.672Z,44.02
2019-03-26T13:44:47.452Z,45.14
2019-03-26T13:47:16.272Z,43.76
2019-03-26T13:49:45.032Z,45.70
2019-03-26T13:52:13.792Z,45.66
2019-03-26T13:54:42.612Z,44.93
2019-03-26T13:57:11.379Z,44.19
2019-03-26T13:59:40.135Z,43.68
2019-03-26T14:02:08.932Z,41.92
2019-03-26T14:04:37.712Z,40.81
2019-03-26T14:07:06.493Z,39.64
2019-03-26T14:09:35.295Z,39.78
2019-03-26T14:12:04.052Z,39.01
2019-03-26T14:14:32.832Z,39.25
2019-03-26T14:17:05.390Z,37.87
2019-03-26T14:19:32.601Z,38.06
2019-03-26T14:22:01.372Z,37.34
2019-03-26T14:24:30.188Z,38.61
2019-03-26T14:26:58.912Z,38.80
2019-03-26T14:29:27.672Z,38.30
2019-03-26T14:31:56.495Z,40.48
2019-03-26T14:34:25.251Z,40.72
2019-03-26T14:36:53.993Z,40.36
2019-03-26T14:39:22.781Z,40.61
2019-03-26T14:41:51.512Z,39.96
2019-03-26T14:44:20.291Z,39.46
2019-03-26T14:46:49.033Z,39.42
2019-03-26T14:49:17.814Z,39.44
2019-03-26T14:51:46.572Z,39.31
2019-03-26T14:54:15.313Z,39.81
2019-03-26T14:56:44.113Z,40.09
2019-03-26T14:59:12.853Z,40.02
2019-03-26T15:01:41.632Z,38.00
2019-03-26T15:04:10.373Z,38.68
2019-03-26T15:06:39.195Z,37.44
2019-03-26T15:09:08.792Z,38.62
2019-03-26T15:11:37.540Z,36.86
2019-03-26T15:14:06.313Z,35.75
2019-03-26T15:16:35.260Z,36.54
2019-03-26T15:19:04.175Z,37.51
2019-03-26T15:21:32.911Z,38.00
2019-03-26T15:24:01.700Z,38.39
2019-03-26T15:26:30.499Z,38.64
2019-03-26T15:28:59.300Z,38.94
2019-03-26T15:31:28.142Z,39.56
2019-03-26T15:33:56.900Z,39.29
2019-03-26T15:36:26.579Z,39.48
2019-03-26T15:38:55.379Z,40.34
2019-03-26T15:41:24.140Z,40.19
2019-03-26T15:43:52.980Z,41.01
2019-03-26T15:46:21.778Z,40.72
2019-03-26T15:48:50.698Z,40.67
2019-03-26T15:51:19.579Z,40.36
2019-03-26T15:53:48.459Z,40.66
2019-03-26T15:56:17.257Z,41.11
2019-03-26T15:58:46.100Z,40.49
2019-03-26T16:01:14.898Z,41.16
2019-03-26T16:03:43.778Z,41.36
2019-03-26T16:06:12.548Z,40.68
2019-03-26T16:08:41.376Z,41.20
2019-03-26T16:11:10.138Z,41.54
2019-03-26T16:13:39.026Z,41.87
2019-03-26T16:16:08.081Z,41.79
2019-03-26T16:18:36.841Z,42.44
2019-03-26T16:21:05.776Z,42.61
2019-03-26T16:23:34.681Z,42.66
2019-03-26T16:26:03.456Z,43.02
2019-03-26T16:28:32.336Z,43.02
2019-03-26T16:31:01.216Z,43.34
2019-03-26T16:33:30.136Z,43.78
2019-03-26T16:35:58.897Z,43.79
2019-03-26T16:38:27.736Z,43.44
2019-03-26T16:40:56.600Z,43.77
2019-03-26T16:43:25.456Z,43.42
2019-03-26T16:45:54.383Z,43.53
2019-03-26T16:48:23.257Z,43.33
2019-03-26T16:50:52.096Z,44.35
2019-03-26T16:53:20.979Z,44.64
2019-03-26T16:55:49.858Z,44.04
2019-03-26T16:58:18.698Z,44.49
2019-03-26T17:00:48.859Z,44.24
2019-03-26T17:03:30.448Z,44.94
2019-03-26T17:05:48.419Z,44.44
2019-03-26T17:08:17.337Z,44.57
2019-03-26T17:10:48.582Z,44.55
2019-03-26T17:13:16.816Z,44.81
2019-03-26T17:15:45.616Z,45.11
2019-03-26T17:18:14.496Z,44.78
2019-03-26T17:20:43.541Z,44.61
2019-03-26T17:23:12.576Z,44.72
2019-03-26T17:25:41.496Z,44.91
2019-03-26T17:28:10.577Z,44.84
2019-03-26T17:30:39.586Z,46.01
2019-03-26T17:33:08.547Z,45.15
2019-03-26T17:35:37.656Z,45.28
2019-03-26T17:38:08.098Z,44.37
2019-03-26T17:40:36.976Z,45.09
2019-03-26T17:43:05.898Z,44.98
2019-03-26T17:45:34.697Z,45.40
2019-03-26T17:48:03.561Z,45.78
2019-03-26T17:50:32.818Z,46.48
2019-03-26T17:53:01.891Z,46.39
2019-03-26T17:55:30.895Z,46.26
2019-03-26T17:58:00.091Z,45.66
2019-03-26T18:00:40.987Z,46.58
2019-03-26T18:03:10.216Z,46.36
2019-03-26T18:05:39.257Z,46.42
2019-03-26T18:08:08.257Z,46.80
2019-03-26T18:10:37.216Z,46.85
2019-03-26T18:13:06.139Z,46.64
2019-03-26T18:15:35.017Z,46.77
2019-03-26T18:18:03.984Z,47.32
2019-03-26T18:20:33.232Z,47.70
2019-03-26T18:23:02.256Z,48.09
2019-03-26T18:25:31.216Z,48.19
2019-03-26T18:28:01.038Z,48.68
2019-03-26T18:30:30.171Z,48.92
2019-03-26T18:32:59.058Z,48.74
2019-03-26T18:35:29.421Z,48.75
2019-03-26T18:37:58.292Z,49.25
2019-03-26T18:40:27.336Z,49.72
2019-03-26T18:42:56.187Z,49.38
2019-03-26T18:45:25.244Z,50.75
2019-03-26T18:47:54.263Z,50.67
2019-03-26T18:50:23.418Z,50.76
2019-03-26T18:52:52.234Z,50.95
2019-03-26T18:55:21.338Z,51.22
2019-03-26T18:57:50.463Z,52.02
2019-03-26T19:00:33.311Z,55.64
2019-03-26T19:03:02.496Z,57.35
2019-03-26T19:05:31.251Z,58.59
2019-03-26T19:08:00.416Z,59.09
2019-03-26T19:10:34.325Z,60.07
2019-03-26T19:13:03.668Z,61.16
2019-03-26T19:15:32.631Z,61.83
2019-03-26T19:18:01.618Z,62.15
2019-03-26T19:20:30.536Z,62.39
2019-03-26T19:22:59.616Z,62.94
2019-03-26T19:25:28.460Z,63.35
2019-03-26T19:27:57.336Z,64.07
2019-03-26T19:30:26.381Z,64.43
2019-03-26T19:32:57.665Z,62.83
2019-03-26T19:35:25.738Z,63.37
2019-03-26T19:37:54.656Z,64.28
2019-03-26T19:40:23.619Z,64.20
2019-03-26T19:43:10.637Z,64.49
2019-03-26T19:45:35.120Z,65.33
2019-03-26T19:48:04.138Z,65.64
2019-03-26T19:50:32.936Z,66.27
2019-03-26T19:53:01.816Z,66.45
2019-03-26T19:55:30.617Z,67.14
2019-03-26T19:57:59.418Z,67.11
2019-03-26T20:00:39.197Z,67.41
2019-03-26T20:03:15.583Z,67.25
2019-03-26T20:05:44.379Z,67.06
2019-03-26T20:08:13.280Z,66.14
2019-03-26T20:10:42.219Z,66.32
2019-03-26T20:13:23.362Z,66.38
2019-03-26T20:15:41.470Z,66.25
2019-03-26T20:18:10.299Z,66.11
2019-03-26T20:20:39.106Z,66.04
2019-03-26T20:23:07.903Z,65.75
2019-03-26T20:25:36.863Z,65.97
2019-03-26T20:28:05.673Z,65.83
2019-03-26T20:30:36.189Z,65.90
2019-03-26T20:33:06.736Z,65.90
2019-03-26T20:35:35.577Z,66.21
2019-03-26T20:38:04.456Z,66.24
2019-03-26T20:40:33.295Z,66.50
2019-03-26T20:43:02.216Z,66.58
2019-03-26T20:45:31.338Z,66.95
2019-03-26T20:48:00.272Z,67.21
2019-03-26T20:50:29.182Z,67.78
2019-03-26T20:52:58.386Z,67.90
2019-03-26T20:55:32.382Z,68.01
2019-03-26T20:58:01.341Z,67.89
2019-03-26T21:00:41.219Z,68.52
2019-03-26T21:03:11.379Z,68.55
2019-03-26T21:05:40.336Z,68.78
2019-03-26T21:08:09.377Z,69.00
2019-03-26T21:10:38.375Z,68.71
2019-03-26T21:13:07.339Z,68.95
2019-03-26T21:15:36.379Z,69.10
2019-03-26T21:18:05.577Z,69.12
2019-03-26T21:20:34.336Z,69.21
2019-03-26T21:23:03.265Z,69.21
2019-03-26T21:25:32.218Z,69.21
2019-03-26T21:28:01.056Z,69.19
2019-03-26T21:30:30.096Z,69.26
2019-03-26T21:32:58.976Z,69.32
2019-03-26T21:35:28.967Z,69.49
2019-03-26T21:37:58.136Z,69.67
2019-03-26T21:40:26.938Z,69.65
2019-03-26T21:42:55.816Z,69.56
2019-03-26T21:45:35.700Z,69.52
2019-03-26T21:48:06.739Z,69.61
2019-03-26T21:50:35.905Z,69.58
2019-03-26T21:53:05.084Z,69.61
2019-03-26T21:55:33.898Z,69.68
2019-03-26T21:58:02.700Z,69.63
2019-03-26T22:00:31.579Z,69.90
2019-03-26T22:03:00.381Z,69.70
2019-03-26T22:05:29.178Z,69.78
2019-03-26T22:07:58.019Z,69.83
2019-03-26T22:10:26.819Z,69.90
2019-03-26T22:12:55.738Z,69.73
2019-03-26T22:15:24.621Z,69.51
2019-03-26T22:17:53.419Z,69.48
2019-03-26T22:20:22.259Z,69.40
2019-03-26T22:22:51.181Z,69.00
2019-03-26T22:25:19.977Z,69.28
2019-03-26T22:27:48.746Z,69.04
2019-03-26T22:30:18.736Z,68.88
2019-03-26T22:32:47.476Z,68.93
2019-03-26T22:35:16.171Z,68.90
2019-03-26T22:37:44.965Z,68.71
2019-03-26T22:40:13.797Z,68.44
2019-03-26T22:42:42.521Z,68.63
2019-03-26T22:45:11.709Z,68.75
2019-03-26T22:47:40.661Z,67.29
2019-03-26T22:50:10.848Z,66.33
2019-03-26T22:52:39.776Z,66.60
2019-03-26T22:55:09.597Z,66.76
2019-03-26T22:57:38.617Z,67.12
2019-03-26T23:00:21.099Z,67.40
2019-03-26T23:02:49.839Z,67.79
2019-03-26T23:05:18.762Z,67.82
2019-03-26T23:07:47.556Z,68.13
2019-03-26T23:10:17.956Z,68.01
2019-03-26T23:12:46.701Z,68.18
2019-03-26T23:15:24.543Z,68.06
2019-03-26T23:17:53.303Z,68.15
2019-03-26T23:20:22.060Z,68.03
2019-03-26T23:22:50.860Z,67.91
2019-03-26T23:25:19.840Z,67.64
2019-03-26T23:27:48.602Z,67.70
2019-03-26T23:30:17.901Z,67.70
2019-03-26T23:32:46.660Z,67.26
2019-03-26T23:35:15.907Z,67.40
2019-03-26T23:37:44.805Z,67.41
2019-03-26T23:40:14.084Z,67.33
2019-03-26T23:42:42.841Z,67.46
2019-03-26T23:45:11.842Z,67.38
2019-03-26T23:47:40.761Z,67.60
2019-03-26T23:50:10.042Z,67.34
2019-03-26T23:52:38.939Z,67.50
2019-03-26T23:55:09.101Z,67.74
2019-03-26T23:57:38.044Z,67.17
